Terminal Aerodrome Forecast
Issued by NWS

Current Version | Previous Version | Text Only | Print | Product List | Glossary On
Versions: 1 2 3 4 5 6 7 8 9 10 11 12 13 14 15 16 17 18 19 20 21
000
FTUS43 KIND 262320
TAFHUF
TAF
KHUF 262320Z 2700/2724 26007KT P6SM SKC
     FM271300 23007KT P6SM SKC
     FM271600 25013G22KT P6SM SKC
     FM272300 24011KT P6SM SKC=

USA.gov is the U.S. government's official web portal to all federal, state and local government web resources and services.